Time;durP1;ratioP1;P1;durP2;ratioP2;P2;SDS_P1;SDS_P2;PMS_P1;PMS_P2;Temp;Humidity;BMP_temperature;BMP_pressure;BME280_temperature;BME280_humidity;BME280_pressure;Samples;Min_cycle;Max_cycle;Signal;HPM_P1;HPM_P2
2024/04/13 00:00:41;;;;;;;;;;;;;;;20.95;52.88;102057.19;2222713;26;6011;-63
2024/04/13 00:01:42;;;;;;;;;;;;;;;20.96;53.08;102067.31;2214786;26;2347;-63
2024/04/13 00:02:44;;;;;;;;;;;;;;;20.96;53.08;102064.44;2217677;26;2274;-63
2024/04/13 00:03:46;;;;;;;;;;;;;;;20.96;52.94;102064.44;2220256;26;2381;-62
2024/04/13 00:04:47;;;;;;;;;;;;;;;20.97;53.16;102066.69;2220640;26;2352;-63
2024/04/13 00:05:49;;;;;;;;;;;;;;;20.96;52.75;102061.56;2219127;26;2246;-63
2024/04/13 00:06:50;;;;;;;;;;;;;;;20.97;52.80;102063.06;2214025;26;2254;-62
2024/04/13 00:07:52;;;;;;;;;;;;;;;20.96;52.90;102050.03;2222355;26;2172;-63
2024/04/13 00:08:55;;;;;;;;;;;;;;;20.97;53.00;102063.06;2216474;26;2202;-63
2024/04/13 00:09:57;;;;;;;;;;;;;;;20.95;52.66;102049.28;2221847;26;2170;-63
2024/04/13 00:10:58;;;;;;;;;;;;;;;20.96;52.63;102061.56;2216343;26;2434;-63
2024/04/13 00:12:00;;;;;;;;;;;;;;;20.95;52.84;102048.53;2210933;26;2057;-63
2024/04/13 00:13:01;;;;;;;;;;;;;;;20.95;52.97;102054.31;2216016;26;2169;-63
2024/04/13 00:14:03;;;;;;;;;;;;;;;20.95;53.14;102051.44;2216028;26;2286;-63
2024/04/13 00:15:04;;;;;;;;;;;;;;;20.94;52.68;102053.56;2218227;26;2253;-62
2024/04/13 00:16:06;;;;;;;;;;;;;;;20.95;52.59;102045.66;2214853;26;2499;-63
2024/04/13 00:17:07;;;;;;;;;;;;;;;20.93;52.70;102052.78;2214488;26;2284;-62
2024/04/13 00:18:09;;;;;;;;;;;;;;;20.95;53.10;102048.53;2218796;26;2067;-62
2024/04/13 00:19:15;;;;;;;;;;;;;;;20.93;52.99;102041.28;2215828;26;2377;-63
2024/04/13 00:20:16;;;;;;;;;;;;;;;20.95;52.66;102042.78;2216477;26;2188;-63
2024/04/13 00:21:18;;;;;;;;;;;;;;;20.94;53.13;102036.28;2214586;26;2462;-63
2024/04/13 00:22:21;;;;;;;;;;;;;;;20.93;52.86;102035.50;2219084;26;2157;-63
2024/04/13 00:23:24;;;;;;;;;;;;;;;20.92;53.00;102039.78;2218974;26;2152;-62
2024/04/13 00:24:26;;;;;;;;;;;;;;;20.93;52.85;102029.00;2213145;26;2354;-62
2024/04/13 00:25:31;;;;;;;;;;;;;;;20.93;52.96;102035.50;2213642;26;2104;-63
2024/04/13 00:26:34;;;;;;;;;;;;;;;20.93;52.52;102034.75;2220984;26;2320;-63
2024/04/13 00:27:36;;;;;;;;;;;;;;;20.93;53.01;102044.16;2222158;26;2321;-63
2024/04/13 00:28:38;;;;;;;;;;;;;;;20.92;53.22;102039.78;2218269;26;2256;-63
2024/04/13 00:29:39;;;;;;;;;;;;;;;20.93;52.62;102040.53;2221762;26;2046;-62
2024/04/13 00:30:40;;;;;;;;;;;;;;;20.93;53.00;102034.75;2230523;26;6547;-63
2024/04/13 00:31:42;;;;;;;;;;;;;;;20.93;53.04;102032.63;2236069;26;2292;-63
2024/04/13 00:32:44;;;;;;;;;;;;;;;20.93;52.65;102040.53;2236515;26;2264;-63
2024/04/13 00:33:47;;;;;;;;;;;;;;;20.92;53.10;102039.78;2235463;26;2311;-62
2024/04/13 00:34:49;;;;;;;;;;;;;;;20.93;52.77;102034.75;2232936;26;2271;-63
2024/04/13 00:35:51;;;;;;;;;;;;;;;20.93;52.65;102035.50;2234946;26;2218;-63
2024/04/13 00:36:52;;;;;;;;;;;;;;;20.92;53.11;102030.41;2228557;26;2101;-62
2024/04/13 00:37:54;;;;;;;;;;;;;;;20.91;53.01;102026.78;2230662;26;2112;-63
2024/04/13 00:38:55;;;;;;;;;;;;;;;20.93;53.00;102029.75;2232043;26;2200;-63
2024/04/13 00:39:57;;;;;;;;;;;;;;;20.92;53.19;102036.91;2234367;26;2299;-62
2024/04/13 00:40:58;;;;;;;;;;;;;;;20.92;53.07;102028.25;2232950;26;2489;-63
2024/04/13 00:42:06;;;;;;;;;;;;;;;20.92;53.04;102031.13;2236917;26;2253;-63
2024/04/13 00:43:11;;;;;;;;;;;;;;;20.92;52.76;102028.25;2232816;26;1997;-63
2024/04/13 00:44:12;;;;;;;;;;;;;;;20.92;52.61;102027.50;2238540;26;2404;-63
2024/04/13 00:45:14;;;;;;;;;;;;;;;20.91;52.85;102026.78;2237544;26;2267;-63
2024/04/13 00:46:23;;;;;;;;;;;;;;;20.91;53.33;102026.78;2229919;26;2374;-63
2024/04/13 00:47:25;;;;;;;;;;;;;;;20.91;53.29;102015.25;2234785;26;2066;-63
2024/04/13 00:48:30;;;;;;;;;;;;;;;20.92;53.04;102021.75;2234321;26;2425;-63
2024/04/13 00:49:33;;;;;;;;;;;;;;;20.91;52.88;102015.25;2233639;26;2109;-63
2024/04/13 00:50:35;;;;;;;;;;;;;;;20.90;52.83;102013.72;2235165;26;2308;-63
2024/04/13 00:51:37;;;;;;;;;;;;;;;20.90;52.67;102013.72;2234838;26;2117;-63
2024/04/13 00:52:41;;;;;;;;;;;;;;;20.91;52.74;102021.00;2234723;26;2185;-63
2024/04/13 00:53:43;;;;;;;;;;;;;;;20.91;52.80;102021.00;2238232;26;2289;-62
2024/04/13 00:54:45;;;;;;;;;;;;;;;20.90;52.98;102019.50;2232582;26;2386;-63
2024/04/13 00:55:47;;;;;;;;;;;;;;;20.90;52.89;102018.75;2233964;26;2117;-62
2024/04/13 00:56:50;;;;;;;;;;;;;;;20.90;52.69;102019.50;2234235;26;2156;-64
2024/04/13 00:57:52;;;;;;;;;;;;;;;20.89;52.95;102023.75;2235546;26;2105;-63
2024/04/13 00:58:53;;;;;;;;;;;;;;;20.90;53.01;102013.00;2243827;26;2203;-62
2024/04/13 00:59:55;;;;;;;;;;;;;;;20.89;53.16;102018.00;2244604;26;2217;-63
2024/04/13 01:00:58;;;;;;;;;;;;;;;20.88;53.05;102016.47;2240444;26;6016;-63
2024/04/13 01:02:01;;;;;;;;;;;;;;;20.89;52.72;102017.22;2232104;26;2338;-63
2024/04/13 01:03:03;;;;;;;;;;;;;;;20.88;53.19;102022.25;2236521;26;2097;-63
2024/04/13 01:04:07;;;;;;;;;;;;;;;20.88;53.04;102012.84;2235572;26;2306;-62
2024/04/13 01:05:13;;;;;;;;;;;;;;;20.90;52.67;102018.75;2233602;26;2238;-63
2024/04/13 01:06:15;;;;;;;;;;;;;;;20.88;52.68;102016.47;2238593;26;2375;-63
2024/04/13 01:07:17;;;;;;;;;;;;;;;20.88;53.30;102019.38;2234838;26;2003;-63
2024/04/13 01:08:21;;;;;;;;;;;;;;;20.88;52.97;102010.72;2235969;26;2020;-63
2024/04/13 01:09:23;;;;;;;;;;;;;;;20.89;52.79;102014.34;2235658;26;2419;-63
2024/04/13 01:10:24;;;;;;;;;;;;;;;20.88;53.40;102010.72;2231285;26;2446;-63
2024/04/13 01:11:26;;;;;;;;;;;;;;;20.87;52.82;102020.75;2230798;26;2288;-62
2024/04/13 01:12:28;;;;;;;;;;;;;;;20.88;53.35;102022.25;2235416;26;2146;-63
2024/04/13 01:13:30;;;;;;;;;;;;;;;20.88;53.32;102015.75;2230544;26;2231;-63
2024/04/13 01:14:31;;;;;;;;;;;;;;;20.87;52.72;102020.75;2238333;26;2340;-63
2024/04/13 01:15:33;;;;;;;;;;;;;;;20.88;52.83;102019.38;2235933;26;2636;-63
2024/04/13 01:16:35;;;;;;;;;;;;;;;20.88;52.63;102015.75;2232228;26;2207;-63
2024/04/13 01:17:37;;;;;;;;;;;;;;;20.87;53.05;102015.00;2235487;26;2268;-62
2024/04/13 01:18:39;;;;;;;;;;;;;;;20.87;53.26;102020.75;2227085;26;2203;-62
2024/04/13 01:19:41;;;;;;;;;;;;;;;20.88;52.86;102022.25;2234618;26;2099;-63
2024/04/13 01:20:43;;;;;;;;;;;;;;;20.88;53.19;102021.50;2228180;26;2454;-62
2024/04/13 01:21:45;;;;;;;;;;;;;;;20.87;53.10;102015.00;2234382;26;2203;-63
2024/04/13 01:22:47;;;;;;;;;;;;;;;20.87;53.04;102020.75;2231736;26;2090;-62
2024/04/13 01:24:00;;;;;;;;;;;;;;;20.87;52.95;102020.75;2232356;26;2229;-63
2024/04/13 01:25:01;;;;;;;;;;;;;;;20.87;52.74;102020.75;2230920;26;2308;-62
2024/04/13 01:26:03;;;;;;;;;;;;;;;20.87;53.38;102020.00;2234887;26;2100;-63
2024/04/13 01:27:05;;;;;;;;;;;;;;;20.86;53.13;102025.00;2233223;26;2106;-63
2024/04/13 01:28:07;;;;;;;;;;;;;;;20.86;52.92;102025.00;2232427;26;2289;-63
2024/04/13 01:29:09;;;;;;;;;;;;;;;20.87;52.94;102020.75;2234338;26;2142;-62
2024/04/13 01:30:13;;;;;;;;;;;;;;;20.86;53.10;102022.09;2232838;26;6059;-63
2024/04/13 01:31:15;;;;;;;;;;;;;;;20.87;52.62;102020.00;2232540;26;2307;-62
2024/04/13 01:32:16;;;;;;;;;;;;;;;20.87;53.11;102022.88;2234389;26;2202;-62
2024/04/13 01:33:19;;;;;;;;;;;;;;;20.87;53.29;102017.13;2226993;26;2165;-63
2024/04/13 01:34:20;;;;;;;;;;;;;;;20.85;52.84;102020.63;2239771;26;2150;-63
2024/04/13 01:35:22;;;;;;;;;;;;;;;20.86;53.35;102025.00;2236152;26;2054;-63
2024/04/13 01:36:26;;;;;;;;;;;;;;;20.87;53.38;102020.00;2233804;26;2636;-63
2024/04/13 01:37:27;;;;;;;;;;;;;;;20.85;52.71;102020.63;2235135;26;2097;-63
2024/04/13 01:38:29;;;;;;;;;;;;;;;20.86;52.92;102030.75;2235913;26;2374;-62
2024/04/13 01:39:31;;;;;;;;;;;;;;;20.85;53.11;102020.63;2235105;26;2089;-63
2024/04/13 01:40:33;;;;;;;;;;;;;;;20.85;53.28;102023.50;2234386;26;2450;-63
2024/04/13 01:41:36;;;;;;;;;;;;;;;20.85;53.13;102029.25;2233075;26;2180;-63
2024/04/13 01:42:39;;;;;;;;;;;;;;;20.85;52.76;102029.25;2236274;26;2433;-62
2024/04/13 01:43:40;;;;;;;;;;;;;;;20.85;52.77;102029.25;2233016;26;2179;-63
2024/04/13 01:44:42;;;;;;;;;;;;;;;20.85;53.39;102032.13;2233575;26;2173;-62
2024/04/13 01:45:44;;;;;;;;;;;;;;;20.86;52.91;102033.63;2234738;26;2261;-63
2024/04/13 01:46:45;;;;;;;;;;;;;;;20.85;53.13;102034.28;2235613;26;2514;-62
2024/04/13 01:47:47;;;;;;;;;;;;;;;20.84;53.02;102047.91;2233745;26;2265;-63
2024/04/13 01:48:48;;;;;;;;;;;;;;;20.85;53.00;102035.03;2234221;26;2105;-63
2024/04/13 01:49:50;;;;;;;;;;;;;;;20.85;53.01;102040.78;2238903;26;2414;-63
2024/04/13 01:50:51;;;;;;;;;;;;;;;20.85;52.63;102040.78;2232639;26;2447;-63
2024/04/13 01:51:53;;;;;;;;;;;;;;;20.84;53.18;102045.00;2235289;26;2276;-63
2024/04/13 01:52:54;;;;;;;;;;;;;;;20.84;53.17;102039.25;2234721;26;2448;-63
2024/04/13 01:53:56;;;;;;;;;;;;;;;20.84;52.75;102032.75;2236751;26;2311;-63
2024/04/13 01:54:57;;;;;;;;;;;;;;;20.83;53.45;102037.75;2235967;26;2268;-63
2024/04/13 01:55:59;;;;;;;;;;;;;;;20.84;53.45;102032.75;2237792;26;2207;-63
2024/04/13 01:57:01;;;;;;;;;;;;;;;20.84;53.16;102036.38;2231832;26;2274;-63
2024/04/13 01:58:03;;;;;;;;;;;;;;;20.85;53.23;102040.03;2234268;26;2160;-62
2024/04/13 01:59:05;;;;;;;;;;;;;;;20.85;53.00;102034.28;2235093;26;2097;-63
2024/04/13 02:00:07;;;;;;;;;;;;;;;20.84;52.90;102038.50;2234901;26;6547;-63
2024/04/13 02:01:08;;;;;;;;;;;;;;;20.83;53.43;102037.03;2238211;26;2463;-62
2024/04/13 02:02:10;;;;;;;;;;;;;;;20.83;53.23;102037.75;2234310;26;2097;-66
2024/04/13 02:03:11;;;;;;;;;;;;;;;20.83;52.93;102037.75;2232334;26;2260;-70
2024/04/13 02:04:16;;;;;;;;;;;;;;;20.83;53.33;102043.53;2235228;26;1989;-62
2024/04/13 02:05:18;;;;;;;;;;;;;;;20.83;52.73;102037.03;2247063;26;2432;-66
2024/04/13 02:06:19;;;;;;;;;;;;;;;20.82;53.20;102042.03;2246230;26;2410;-66
2024/04/13 02:07:22;;;;;;;;;;;;;;;20.84;53.08;102045.00;2239030;26;2340;-65
2024/04/13 02:08:23;;;;;;;;;;;;;;;20.83;53.31;102040.66;2235460;26;2104;-66
2024/04/13 02:09:25;;;;;;;;;;;;;;;20.82;52.89;102042.03;2229513;26;2267;-66
2024/04/13 02:10:27;;;;;;;;;;;;;;;20.82;53.16;102042.03;2226047;26;2346;-66
2024/04/13 02:11:28;;;;;;;;;;;;;;;20.82;53.13;102042.03;2232246;26;2174;-66
2024/04/13 02:12:30;;;;;;;;;;;;;;;20.83;52.72;102043.53;2234195;26;2029;-65
2024/04/13 02:13:34;;;;;;;;;;;;;;;20.83;52.90;102037.03;2235387;26;2178;-65
2024/04/13 02:14:36;;;;;;;;;;;;;;;20.85;53.03;102045.78;2235736;26;2155;-65
2024/04/13 02:15:44;;;;;;;;;;;;;;;20.83;52.76;102046.41;2230735;26;2370;-65
2024/04/13 02:16:46;;;;;;;;;;;;;;;20.84;53.04;102044.28;2234831;26;2191;-66
2024/04/13 02:17:47;;;;;;;;;;;;;;;20.84;52.94;102044.28;2234230;26;2325;-65
2024/04/13 02:18:49;;;;;;;;;;;;;;;20.84;52.88;102041.38;2236426;26;2161;-66
2024/04/13 02:19:50;;;;;;;;;;;;;;;20.83;53.24;102040.66;2235593;26;2204;-66
2024/04/13 02:20:52;;;;;;;;;;;;;;;20.83;52.88;102049.28;2234100;26;2245;-66
2024/04/13 02:21:53;;;;;;;;;;;;;;;20.84;53.26;102045.00;2234149;26;2224;-65
2024/04/13 02:22:54;;;;;;;;;;;;;;;20.84;53.14;102044.28;2232226;26;2101;-65
2024/04/13 02:23:56;;;;;;;;;;;;;;;20.83;52.93;102040.66;2230972;26;2184;-65
2024/04/13 02:24:58;;;;;;;;;;;;;;;20.83;52.98;102043.53;2233880;26;2298;-66
2024/04/13 02:26:00;;;;;;;;;;;;;;;20.84;52.61;102039.25;2236345;26;2053;-65
2024/04/13 02:27:02;;;;;;;;;;;;;;;20.84;52.95;102039.25;2234162;26;2336;-66
2024/04/13 02:28:04;;;;;;;;;;;;;;;20.83;53.07;102043.53;2239174;26;2306;-65
2024/04/13 02:29:06;;;;;;;;;;;;;;;20.84;52.71;102044.28;2230278;26;2140;-66
2024/04/13 02:30:08;;;;;;;;;;;;;;;20.82;52.84;102036.28;2230855;26;5924;-65
2024/04/13 02:31:09;;;;;;;;;;;;;;;20.83;52.75;102037.75;2241020;26;2249;-66
2024/04/13 02:32:11;;;;;;;;;;;;;;;20.83;52.86;102037.75;2228812;26;2104;-65
2024/04/13 02:33:12;;;;;;;;;;;;;;;20.83;52.77;102037.75;2234755;26;2161;-65
2024/04/13 02:34:14;;;;;;;;;;;;;;;20.83;53.31;102042.78;2235622;26;2496;-65
2024/04/13 02:35:16;;;;;;;;;;;;;;;20.83;52.74;102043.53;2232284;26;2309;-65
2024/04/13 02:36:17;;;;;;;;;;;;;;;20.83;53.24;102037.75;2234210;26;2151;-66
2024/04/13 02:37:19;;;;;;;;;;;;;;;20.83;53.09;102037.75;2235116;26;2262;-65
2024/04/13 02:38:20;;;;;;;;;;;;;;;20.83;52.75;102037.75;2231239;26;2168;-66
2024/04/13 02:39:22;;;;;;;;;;;;;;;20.83;52.84;102043.53;2235346;26;2256;-66
2024/04/13 02:40:23;;;;;;;;;;;;;;;20.82;53.31;102042.03;2234677;26;1988;-65
2024/04/13 02:41:25;;;;;;;;;;;;;;;20.82;53.27;102042.03;2229292;26;2462;-66
2024/04/13 02:42:27;;;;;;;;;;;;;;;20.82;53.04;102030.50;2234426;26;2108;-65
2024/04/13 02:43:31;;;;;;;;;;;;;;;20.81;53.25;102040.50;2232514;26;2194;-66
2024/04/13 02:44:33;;;;;;;;;;;;;;;20.80;52.82;102030.38;2224898;26;2248;-65
2024/04/13 02:45:35;;;;;;;;;;;;;;;20.81;53.16;102034.75;2234633;26;2300;-65
2024/04/13 02:46:37;;;;;;;;;;;;;;;20.80;53.03;102038.25;2234319;26;2159;-66
2024/04/13 02:47:38;;;;;;;;;;;;;;;20.80;53.06;102026.72;2235472;26;2149;-66
2024/04/13 02:48:41;;;;;;;;;;;;;;;20.80;53.20;102023.84;2232348;26;2198;-65
2024/04/13 02:49:43;;;;;;;;;;;;;;;20.79;52.83;102020.22;2233328;26;2103;-66
2024/04/13 02:50:45;;;;;;;;;;;;;;;20.80;53.41;102020.97;2234101;26;2247;-65
2024/04/13 02:51:46;;;;;;;;;;;;;;;20.79;53.16;102014.47;2245113;26;2320;-66
2024/04/13 02:52:48;;;;;;;;;;;;;;;20.80;52.97;102024.63;2248722;26;2201;-66
2024/04/13 02:53:49;;;;;;;;;;;;;;;20.79;53.47;102020.22;2233130;26;2190;-65
2024/04/13 02:54:51;;;;;;;;;;;;;;;20.79;53.33;102020.22;2232691;26;2191;-65
2024/04/13 02:55:52;;;;;;;;;;;;;;;20.79;53.17;102026.00;2235209;26;2262;-66
2024/04/13 02:56:54;;;;;;;;;;;;;;;20.80;52.97;102020.97;2232710;26;2318;-65
2024/04/13 02:57:55;;;;;;;;;;;;;;;20.79;53.25;102013.72;2230885;26;2108;-66
2024/04/13 02:58:57;;;;;;;;;;;;;;;20.78;53.17;102012.97;2228988;26;2004;-65
2024/04/13 02:59:58;;;;;;;;;;;;;;;20.80;53.02;102012.34;2233823;26;2303;-66
2024/04/13 03:01:01;;;;;;;;;;;;;;;20.79;52.93;102005.09;2220661;26;5922;-66
2024/04/13 03:02:02;;;;;;;;;;;;;;;20.79;53.28;102008.72;2218396;26;2211;-65
2024/04/13 03:03:04;;;;;;;;;;;;;;;20.79;53.38;102005.09;2218163;26;2130;-66
2024/04/13 03:04:06;;;;;;;;;;;;;;;20.78;53.09;102007.22;2221622;26;2247;-66
2024/04/13 03:05:08;;;;;;;;;;;;;;;20.79;53.32;102008.72;2221972;26;2296;-66
2024/04/13 03:06:14;;;;;;;;;;;;;;;20.79;52.95;102005.84;2228442;26;2364;-65
2024/04/13 03:07:16;;;;;;;;;;;;;;;20.80;53.08;102012.34;2220405;26;2431;-66
2024/04/13 03:08:17;;;;;;;;;;;;;;;20.79;53.16;102011.59;2219728;26;2305;-65
2024/04/13 03:09:20;;;;;;;;;;;;;;;20.79;53.10;102002.97;2222780;26;2011;-65
2024/04/13 03:10:21;;;;;;;;;;;;;;;20.80;53.24;102000.81;2218031;26;2200;-66
2024/04/13 03:11:23;;;;;;;;;;;;;;;20.81;52.88;102010.97;2222070;26;2319;-66
2024/04/13 03:12:24;;;;;;;;;;;;;;;20.81;52.66;102011.72;2218823;26;2289;-65
2024/04/13 03:13:26;;;;;;;;;;;;;;;20.81;53.07;102011.72;2216752;26;2190;-65
2024/04/13 03:14:28;;;;;;;;;;;;;;;20.83;53.21;102008.97;2225126;26;2139;-66
2024/04/13 03:15:29;;;;;;;;;;;;;;;20.82;52.96;102001.72;2219297;26;2140;-65
2024/04/13 03:16:31;;;;;;;;;;;;;;;20.83;53.27;102002.47;2221157;26;2418;-66
2024/04/13 03:17:33;;;;;;;;;;;;;;;20.84;53.18;102009.72;2223716;26;2487;-65
2024/04/13 03:18:38;;;;;;;;;;;;;;;20.84;52.67;102004.72;2233900;26;2337;-65
2024/04/13 03:19:40;;;;;;;;;;;;;;;20.84;52.83;102009.72;2223303;26;1977;-66
2024/04/13 03:20:42;;;;;;;;;;;;;;;20.84;52.95;102003.97;2227345;26;2183;-66
2024/04/13 03:21:45;;;;;;;;;;;;;;;20.84;53.13;102006.84;2222691;26;2262;-66
2024/04/13 03:22:47;;;;;;;;;;;;;;;20.84;52.96;102003.97;2222809;26;2178;-65
2024/04/13 03:23:48;;;;;;;;;;;;;;;20.84;53.12;102004.72;2219990;26;2310;-65
2024/04/13 03:24:50;;;;;;;;;;;;;;;20.84;52.60;102009.72;2221379;26;2323;-65
2024/04/13 03:25:52;;;;;;;;;;;;;;;20.83;53.00;102008.97;2222151;26;2272;-65
2024/04/13 03:26:53;;;;;;;;;;;;;;;20.84;52.94;102007.59;2222320;26;2482;-65
2024/04/13 03:27:55;;;;;;;;;;;;;;;20.84;52.86;102004.72;2225850;26;2131;-66
2024/04/13 03:28:56;;;;;;;;;;;;;;;20.83;52.74;102008.97;2221131;26;2549;-66
2024/04/13 03:29:58;;;;;;;;;;;;;;;20.84;52.73;102010.47;2224636;26;2172;-65
2024/04/13 03:30:59;;;;;;;;;;;;;;;20.84;53.04;102009.72;2237016;26;5726;-65
2024/04/13 03:32:01;;;;;;;;;;;;;;;20.84;52.81;102010.47;2238211;26;2410;-65
2024/04/13 03:33:03;;;;;;;;;;;;;;;20.84;52.92;102009.72;2239335;26;2128;-66
2024/04/13 03:34:04;;;;;;;;;;;;;;;20.83;52.93;102014.72;2237907;26;2319;-65
2024/04/13 03:35:07;;;;;;;;;;;;;;;20.83;52.89;102014.72;2235279;26;2298;-65
2024/04/13 03:36:09;;;;;;;;;;;;;;;20.83;52.97;102014.72;2240618;26;2154;-65
2024/04/13 03:37:11;;;;;;;;;;;;;;;20.83;52.94;102014.00;2240801;26;2373;-65
2024/04/13 03:38:16;;;;;;;;;;;;;;;20.83;53.21;102020.50;2235535;26;2260;-66
2024/04/13 03:39:18;;;;;;;;;;;;;;;20.83;53.11;102020.50;2233464;26;2564;-65
2024/04/13 03:40:19;;;;;;;;;;;;;;;20.83;52.61;102020.50;2237089;26;2602;-65
2024/04/13 03:41:21;;;;;;;;;;;;;;;20.82;52.66;102007.47;2231989;26;2063;-65
2024/04/13 03:42:22;;;;;;;;;;;;;;;20.83;52.95;102008.97;2230650;26;2141;-66
2024/04/13 03:43:24;;;;;;;;;;;;;;;20.83;52.87;102011.84;2236776;26;2204;-66
2024/04/13 03:44:25;;;;;;;;;;;;;;;20.83;52.48;102011.84;2243882;26;2210;-66
2024/04/13 03:45:27;;;;;;;;;;;;;;;20.83;52.70;102011.84;2236731;26;2261;-66
2024/04/13 03:46:28;;;;;;;;;;;;;;;20.82;52.85;102012.47;2236253;26;2270;-66
2024/04/13 03:47:31;;;;;;;;;;;;;;;20.82;53.01;102016.13;2236829;26;2398;-65
2024/04/13 03:48:32;;;;;;;;;;;;;;;20.82;52.80;102013.25;2233892;26;2262;-66
2024/04/13 03:49:34;;;;;;;;;;;;;;;20.83;52.86;102014.00;2237949;26;2037;-66
2024/04/13 03:50:42;;;;;;;;;;;;;;;20.82;52.79;102012.47;2233722;26;2192;-65
2024/04/13 03:51:43;;;;;;;;;;;;;;;20.83;52.77;102008.22;2237418;26;2189;-65
2024/04/13 03:52:45;;;;;;;;;;;;;;;20.82;52.55;102016.13;2235288;26;2373;-65
2024/04/13 03:53:47;;;;;;;;;;;;;;;20.81;52.59;102016.75;2235561;26;2254;-65
2024/04/13 03:54:48;;;;;;;;;;;;;;;20.81;52.68;102016.75;2237789;26;2301;-65
2024/04/13 03:55:49;;;;;;;;;;;;;;;20.80;53.31;102016.00;2243455;26;2153;-65
2024/04/13 03:56:51;;;;;;;;;;;;;;;20.80;52.88;102016.00;2235801;26;2576;-65
2024/04/13 03:57:52;;;;;;;;;;;;;;;20.80;52.79;102015.22;2237301;26;2862;-65
2024/04/13 03:58:55;;;;;;;;;;;;;;;20.80;52.88;102013.13;2240449;26;2049;-65
2024/04/13 03:59:56;;;;;;;;;;;;;;;20.80;52.62;102006.59;2236702;26;2174;-66
2024/04/13 04:00:57;;;;;;;;;;;;;;;20.79;53.12;102014.47;2231751;26;5813;-65
2024/04/13 04:02:00;;;;;;;;;;;;;;;20.79;52.66;102013.72;2236559;26;2144;-65
2024/04/13 04:03:02;;;;;;;;;;;;;;;20.79;53.26;102002.97;2236035;26;2082;-66
2024/04/13 04:04:03;;;;;;;;;;;;;;;20.79;52.64;102007.97;2237146;26;2128;-66
2024/04/13 04:05:06;;;;;;;;;;;;;;;20.79;52.94;102011.59;2231449;26;2128;-65
2024/04/13 04:06:08;;;;;;;;;;;;;;;20.79;52.85;102005.84;2237295;26;2324;-66
2024/04/13 04:07:09;;;;;;;;;;;;;;;20.79;53.21;102008.72;2247323;26;2587;-66
2024/04/13 04:08:11;;;;;;;;;;;;;;;20.79;52.97;102002.22;2234466;26;2458;-65
2024/04/13 04:09:13;;;;;;;;;;;;;;;20.79;52.94;102008.72;2235565;26;2269;-66
2024/04/13 04:10:14;;;;;;;;;;;;;;;20.79;52.94;102005.09;2231900;26;2229;-65
2024/04/13 04:11:16;;;;;;;;;;;;;;;20.78;52.74;102009.34;2242236;26;2170;-65
2024/04/13 04:12:17;;;;;;;;;;;;;;;20.78;52.97;102007.22;2234858;26;2197;-66
2024/04/13 04:13:19;;;;;;;;;;;;;;;20.78;52.97;101998.59;2237478;26;1936;-66
2024/04/13 04:14:21;;;;;;;;;;;;;;;20.77;52.92;102002.81;2235903;26;2167;-66
2024/04/13 04:15:22;;;;;;;;;;;;;;;20.78;52.80;102000.72;2234484;26;2455;-66
2024/04/13 04:16:24;;;;;;;;;;;;;;;20.78;52.95;102010.09;2237569;26;2070;-65
2024/04/13 04:17:25;;;;;;;;;;;;;;;20.77;52.57;102011.47;2235061;26;2326;-66
2024/04/13 04:18:27;;;;;;;;;;;;;;;20.78;52.70;102012.25;2235328;26;2301;-65
2024/04/13 04:19:29;;;;;;;;;;;;;;;20.78;53.26;102009.34;2235252;26;2308;-66
2024/04/13 04:20:33;;;;;;;;;;;;;;;20.78;52.74;102010.09;2238038;26;2038;-66
2024/04/13 04:21:35;;;;;;;;;;;;;;;20.77;53.19;102005.72;2236301;26;1946;-66
2024/04/13 04:22:36;;;;;;;;;;;;;;;20.77;53.01;102002.81;2235065;26;2327;-66
2024/04/13 04:23:38;;;;;;;;;;;;;;;20.77;52.97;102014.34;2234525;26;2135;-65
2024/04/13 04:24:39;;;;;;;;;;;;;;;20.76;52.88;102009.97;2233799;26;2196;-66
2024/04/13 04:25:41;;;;;;;;;;;;;;;20.77;52.96;102010.72;2233328;26;2191;-65
2024/04/13 04:26:42;;;;;;;;;;;;;;;20.77;53.06;102011.47;2238874;26;2135;-65
2024/04/13 04:27:44;;;;;;;;;;;;;;;20.77;53.03;102013.59;2232904;26;2195;-65
2024/04/13 04:28:45;;;;;;;;;;;;;;;20.77;52.71;102017.22;2238068;26;2186;-66
2024/04/13 04:29:47;;;;;;;;;;;;;;;20.77;53.36;102010.72;2230141;26;2710;-66
2024/04/13 04:30:48;;;;;;;;;;;;;;;20.76;52.91;102009.97;2230930;26;6102;-65
2024/04/13 04:31:50;;;;;;;;;;;;;;;20.77;53.21;102011.47;2232119;26;2610;-66
2024/04/13 04:32:51;;;;;;;;;;;;;;;20.77;53.32;102014.34;2240017;26;2422;-65
2024/04/13 04:33:53;;;;;;;;;;;;;;;20.76;52.90;102009.97;2229005;26;2123;-66
2024/04/13 04:34:54;;;;;;;;;;;;;;;20.77;53.12;102016.47;2234400;26;2177;-65
2024/04/13 04:35:56;;;;;;;;;;;;;;;20.76;53.35;102004.22;2237967;26;2319;-65
2024/04/13 04:36:57;;;;;;;;;;;;;;;20.76;52.76;102004.22;2235759;26;2523;-65
2024/04/13 04:37:59;;;;;;;;;;;;;;;20.76;52.75;102004.22;2236035;26;2622;-66
2024/04/13 04:39:00;;;;;;;;;;;;;;;20.76;52.83;102009.97;2236859;26;2185;-65
2024/04/13 04:40:02;;;;;;;;;;;;;;;20.76;52.80;101995.59;2237782;26;2103;-66
2024/04/13 04:41:04;;;;;;;;;;;;;;;20.76;52.76;102009.97;2239986;26;2160;-65
2024/04/13 04:42:06;;;;;;;;;;;;;;;20.76;53.18;102009.97;2235319;26;2227;-66
2024/04/13 04:43:08;;;;;;;;;;;;;;;20.76;53.00;102003.47;2231806;26;2338;-65
2024/04/13 04:44:10;;;;;;;;;;;;;;;20.76;52.95;102009.22;2238633;26;2248;-65
2024/04/13 04:45:11;;;;;;;;;;;;;;;20.76;53.00;102012.84;2235601;26;2416;-66
2024/04/13 04:46:13;;;;;;;;;;;;;;;20.76;52.96;102007.09;2236139;26;2173;-66
2024/04/13 04:47:14;;;;;;;;;;;;;;;20.77;52.88;102010.72;2235368;26;2625;-65
2024/04/13 04:48:16;;;;;;;;;;;;;;;20.76;53.28;102012.84;2232210;26;2188;-65
2024/04/13 04:49:17;;;;;;;;;;;;;;;20.77;53.11;102010.72;2237231;26;2258;-65
2024/04/13 04:50:19;;;;;;;;;;;;;;;20.77;52.83;102005.72;2234857;26;2264;-65
2024/04/13 04:51:20;;;;;;;;;;;;;;;20.76;53.02;102007.09;2237076;26;2221;-65
2024/04/13 04:52:22;;;;;;;;;;;;;;;20.76;52.76;102015.72;2237195;26;2260;-65
2024/04/13 04:53:26;;;;;;;;;;;;;;;20.76;52.85;102012.84;2236976;26;2227;-65
2024/04/13 04:54:28;;;;;;;;;;;;;;;20.76;52.78;102018.59;2236094;26;2203;-66
2024/04/13 04:55:29;;;;;;;;;;;;;;;20.76;53.42;102014.97;2232593;26;2703;-66
2024/04/13 04:56:31;;;;;;;;;;;;;;;20.76;53.20;102015.72;2235493;26;2444;-66
2024/04/13 04:57:33;;;;;;;;;;;;;;;20.76;53.24;102015.72;2234539;26;2613;-65
2024/04/13 04:58:34;;;;;;;;;;;;;;;20.76;52.90;102021.47;2248830;26;2278;-66
2024/04/13 04:59:36;;;;;;;;;;;;;;;20.76;53.16;102021.47;2244583;26;2108;-66
2024/04/13 05:00:37;;;;;;;;;;;;;;;20.75;52.95;102014.22;2236155;26;6059;-65
2024/04/13 05:01:39;;;;;;;;;;;;;;;20.76;53.00;102027.25;2231972;26;2298;-65
2024/04/13 05:02:41;;;;;;;;;;;;;;;20.75;53.49;102028.59;2237490;26;2002;-65
2024/04/13 05:03:42;;;;;;;;;;;;;;;20.76;52.86;102021.47;2236745;26;2122;-66
2024/04/13 05:04:44;;;;;;;;;;;;;;;20.75;52.70;102019.97;2236244;26;2201;-66
2024/04/13 05:05:45;;;;;;;;;;;;;;;20.75;53.34;102014.22;2230053;26;2208;-65
2024/04/13 05:06:47;;;;;;;;;;;;;;;20.76;53.43;102017.88;2236036;26;2125;-65
2024/04/13 05:07:49;;;;;;;;;;;;;;;20.75;53.05;102019.97;2232374;26;2357;-66
2024/04/13 05:08:54;;;;;;;;;;;;;;;20.74;52.94;102015.59;2239898;26;2370;-65
2024/04/13 05:09:55;;;;;;;;;;;;;;;20.74;53.11;102015.59;2237859;26;2163;-66
2024/04/13 05:10:57;;;;;;;;;;;;;;;20.74;53.05;102015.59;2240035;26;2099;-66
2024/04/13 05:11:59;;;;;;;;;;;;;;;20.74;52.61;102024.22;2229972;26;2332;-66
2024/04/13 05:13:02;;;;;;;;;;;;;;;20.75;52.97;102022.84;2236707;26;2166;-65
2024/04/13 05:14:03;;;;;;;;;;;;;;;20.75;52.80;102024.97;2235223;26;2119;-65
2024/04/13 05:15:05;;;;;;;;;;;;;;;20.74;53.47;102024.22;2239624;26;2216;-66
2024/04/13 05:16:08;;;;;;;;;;;;;;;20.74;53.08;102030.00;2235784;26;2550;-65
2024/04/13 05:17:09;;;;;;;;;;;;;;;20.74;53.02;102032.13;2233957;26;2270;-66
2024/04/13 05:18:11;;;;;;;;;;;;;;;20.74;52.87;102030.00;2236539;26;2368;-65
2024/04/13 05:19:12;;;;;;;;;;;;;;;20.74;52.67;102030.00;2239813;26;2112;-66
2024/04/13 05:20:14;;;;;;;;;;;;;;;20.74;52.99;102023.50;2237460;26;2278;-65
2024/04/13 05:21:15;;;;;;;;;;;;;;;20.73;52.82;102022.75;2234403;26;2265;-65
2024/04/13 05:22:17;;;;;;;;;;;;;;;20.74;52.99;102030.00;2231920;26;2177;-66
2024/04/13 05:23:19;;;;;;;;;;;;;;;20.73;52.87;102028.50;2238716;26;2342;-66